Time;durP1;ratioP1;P1;durP2;ratioP2;P2;SDS_P1;SDS_P2;PMS_P1;PMS_P2;Temp;Humidity;BMP_temperature;BMP_pressure;BME280_temperature;BME280_humidity;BME280_pressure;Samples;Min_cycle;Max_cycle;Signal;HPM_P1;HPM_P2
2023/02/13 00:01:16;;;;;;;3.33;2.57;;;;;;;;;;5051459;28;20442;-67
2023/02/13 00:03:43;;;;;;;8.43;4.47;;;;;;;;;;5051035;28;20476;-66
2023/02/13 00:06:10;;;;;;;5.87;3.60;;;;;;;;;;5051156;28;20469;-67
2023/02/13 00:08:37;;;;;;;6.50;4.57;;;;;;;;;;5059879;28;20478;-67
2023/02/13 00:11:04;;;;;;;6.90;4.37;;;;;;;;;;5051583;28;20449;-67
2023/02/13 00:13:33;;;;;;;5.77;4.10;;;;;;;;;;5051790;28;20823;-67
2023/02/13 00:16:02;;;;;;;6.50;5.67;;;;;;;;;;5050867;28;20586;-67
2023/02/13 00:18:29;;;;;;;3.43;3.00;;;;;;;;;;5050596;28;21037;-67
2023/02/13 00:21:00;;;;;;;5.60;3.73;;;;;;;;;;5050588;28;20905;-67
2023/02/13 00:23:27;;;;;;;11.30;4.17;;;;;;;;;;5051180;28;20442;-67
2023/02/13 00:25:54;;;;;;;5.00;2.83;;;;;;;;;;5050769;28;20815;-67
2023/02/13 00:28:21;;;;;;;8.93;4.80;;;;;;;;;;5050660;28;20469;-67
2023/02/13 00:30:50;;;;;;;4.97;3.63;;;;;;;;;;5050104;28;20454;-67
2023/02/13 00:33:17;;;;;;;5.03;4.00;;;;;;;;;;5050994;28;20812;-67
2023/02/13 00:35:44;;;;;;;6.93;4.93;;;;;;;;;;5050280;28;20478;-67
2023/02/13 00:38:11;;;;;;;9.50;5.03;;;;;;;;;;5050756;28;20454;-67
2023/02/13 00:40:38;;;;;;;7.73;4.67;;;;;;;;;;5050013;28;20443;-68
2023/02/13 00:43:05;;;;;;;6.73;4.83;;;;;;;;;;5050378;28;20497;-68
2023/02/13 00:45:32;;;;;;;11.23;5.17;;;;;;;;;;5050681;28;20558;-69
2023/02/13 00:48:01;;;;;;;5.30;3.37;;;;;;;;;;5050263;28;20457;-67
2023/02/13 00:50:28;;;;;;;4.27;3.87;;;;;;;;;;5037079;28;20457;-68
2023/02/13 00:52:55;;;;;;;14.60;5.43;;;;;;;;;;5048999;28;20962;-67
2023/02/13 00:55:22;;;;;;;8.90;4.10;;;;;;;;;;5050742;28;20477;-67
2023/02/13 00:57:49;;;;;;;6.23;3.50;;;;;;;;;;5049677;28;20443;-67
2023/02/13 01:00:16;;;;;;;5.10;4.60;;;;;;;;;;5050354;28;20453;-67
2023/02/13 01:02:44;;;;;;;5.37;3.60;;;;;;;;;;5049755;28;20453;-66
2023/02/13 01:05:12;;;;;;;9.70;3.60;;;;;;;;;;5050612;28;20461;-67
2023/02/13 01:07:39;;;;;;;7.80;4.70;;;;;;;;;;5049742;28;20458;-66
2023/02/13 01:10:07;;;;;;;6.60;3.83;;;;;;;;;;5050162;28;20481;-67
2023/02/13 01:12:34;;;;;;;7.00;4.17;;;;;;;;;;5050446;28;20457;-67
2023/02/13 01:15:01;;;;;;;8.47;5.30;;;;;;;;;;5050278;28;20480;-67
2023/02/13 01:17:28;;;;;;;4.97;3.20;;;;;;;;;;5050607;28;20493;-67
2023/02/13 01:19:55;;;;;;;6.33;3.93;;;;;;;;;;5049771;28;20469;-67
2023/02/13 01:22:24;;;;;;;4.97;3.77;;;;;;;;;;5050638;28;20455;-68
2023/02/13 01:24:51;;;;;;;9.37;4.50;;;;;;;;;;5049835;28;20966;-67
2023/02/13 01:27:18;;;;;;;5.97;3.17;;;;;;;;;;5050451;28;20462;-67
2023/02/13 01:29:45;;;;;;;8.93;3.87;;;;;;;;;;5049822;28;20449;-67
2023/02/13 01:32:12;;;;;;;8.73;6.00;;;;;;;;;;5050406;28;20450;-67
2023/02/13 01:34:39;;;;;;;8.20;4.60;;;;;;;;;;5050108;28;20790;-66
2023/02/13 01:37:06;;;;;;;9.50;4.73;;;;;;;;;;5050421;28;20504;-67
2023/02/13 01:39:35;;;;;;;8.83;5.30;;;;;;;;;;5049675;28;20465;-67
2023/02/13 01:42:02;;;;;;;9.00;4.70;;;;;;;;;;5049143;28;20640;-67
2023/02/13 01:44:50;;;;;;;3.40;3.07;;;;;;;;;;5049555;28;20458;-67
2023/02/13 01:47:19;;;;;;;6.97;4.07;;;;;;;;;;5045595;28;20445;-67
2023/02/13 01:49:47;;;;;;;9.57;5.03;;;;;;;;;;5048356;28;21061;-67
2023/02/13 01:52:15;;;;;;;8.70;3.37;;;;;;;;;;5049649;28;20449;-68
2023/02/13 01:54:43;;;;;;;6.70;3.70;;;;;;;;;;5049435;28;20465;-66
2023/02/13 01:57:12;;;;;;;8.30;5.60;;;;;;;;;;5049283;28;20481;-67
2023/02/13 01:59:41;;;;;;;7.50;4.50;;;;;;;;;;5049504;28;20440;-66
2023/02/13 02:02:08;;;;;;;16.40;4.67;;;;;;;;;;5049868;28;20483;-67
2023/02/13 02:04:38;;;;;;;12.33;6.30;;;;;;;;;;5051465;28;20458;-67
2023/02/13 02:07:07;;;;;;;10.23;5.30;;;;;;;;;;5053209;28;20458;-67
2023/02/13 02:09:36;;;;;;;6.60;5.50;;;;;;;;;;5053280;28;20485;-67
2023/02/13 02:12:06;;;;;;;9.33;4.03;;;;;;;;;;5052856;28;20998;-67
2023/02/13 02:14:34;;;;;;;7.60;4.13;;;;;;;;;;5053687;28;20450;-67
2023/02/13 02:17:01;;;;;;;15.33;6.33;;;;;;;;;;5053288;28;20485;-67
2023/02/13 02:19:34;;;;;;;10.33;5.63;;;;;;;;;;5053075;28;20457;-67
2023/02/13 02:22:17;;;;;;;6.27;5.10;;;;;;;;;;5053004;28;20454;-67
2023/02/13 02:24:51;;;;;;;9.40;4.57;;;;;;;;;;5052995;28;20449;-67
2023/02/13 02:27:34;;;;;;;17.40;7.57;;;;;;;;;;5053385;28;20445;-67
2023/02/13 02:30:12;;;;;;;11.07;4.27;;;;;;;;;;5052624;28;20457;-67
2023/02/13 02:32:46;;;;;;;8.23;6.03;;;;;;;;;;5053042;28;20472;-66
2023/02/13 02:35:19;;;;;;;5.07;3.73;;;;;;;;;;5053408;28;20445;-67
2023/02/13 02:37:57;;;;;;;7.43;4.80;;;;;;;;;;5052618;28;20504;-67
2023/02/13 02:40:26;;;;;;;7.07;4.70;;;;;;;;;;5052868;28;20805;-67
2023/02/13 02:42:58;;;;;;;4.80;3.90;;;;;;;;;;5043563;28;20456;-67
2023/02/13 02:45:29;;;;;;;20.03;6.60;;;;;;;;;;5052956;28;20469;-67
2023/02/13 02:50:47;;;;;;;9.00;6.03;;;;;;;;;;5044129;28;20418;-66
2023/02/13 02:53:19;;;;;;;10.43;6.10;;;;;;;;;;5053012;28;20456;-66
2023/02/13 02:55:49;;;;;;;14.27;6.37;;;;;;;;;;5052045;28;20799;-66
2023/02/13 03:06:39;;;;;;;8.70;5.93;;;;;;;;;;5047508;28;20456;-66
2023/02/13 03:14:41;;;;;;;6.20;5.33;;;;;;;;;;5052093;28;20457;-66
2023/02/13 03:22:47;;;;;;;9.77;4.90;;;;;;;;;;5051663;28;20432;-66
2023/02/13 03:25:29;;;;;;;6.97;4.50;;;;;;;;;;5052457;28;20929;-67
2023/02/13 03:30:48;;;;;;;7.27;4.10;;;;;;;;;;5054374;28;20941;-67
2023/02/13 03:33:23;;;;;;;18.60;6.20;;;;;;;;;;5052888;28;20444;-67
2023/02/13 03:38:43;;;;;;;5.97;3.30;;;;;;;;;;5051742;28;20586;-67
2023/02/13 03:41:19;;;;;;;11.87;4.93;;;;;;;;;;5052658;28;20449;-67
2023/02/13 03:43:50;;;;;;;12.30;5.13;;;;;;;;;;5051850;28;20446;-66
2023/02/13 03:46:19;;;;;;;12.97;6.40;;;;;;;;;;5052339;28;20449;-67
2023/02/13 03:51:41;;;;;;;4.80;4.00;;;;;;;;;;4995518;28;20530;-67
2023/02/13 03:54:13;;;;;;;11.30;6.40;;;;;;;;;;5052696;28;20918;-66
2023/02/13 03:59:29;;;;;;;11.00;6.33;;;;;;;;;;5051703;28;20429;-67
2023/02/13 04:02:00;;;;;;;14.60;5.50;;;;;;;;;;5051623;28;20951;-67
2023/02/13 04:04:31;;;;;;;8.80;4.93;;;;;;;;;;5052184;28;20482;-67
2023/02/13 04:07:01;;;;;;;11.93;4.00;;;;;;;;;;5051028;28;20461;-67
2023/02/13 04:09:29;;;;;;;10.50;6.00;;;;;;;;;;5051001;28;20500;-68
2023/02/13 04:11:59;;;;;;;9.20;4.33;;;;;;;;;;5051221;28;20453;-67
2023/02/13 04:14:28;;;;;;;8.43;4.77;;;;;;;;;;5051311;28;20445;-67
2023/02/13 04:16:58;;;;;;;9.43;4.70;;;;;;;;;;5051374;28;20492;-67
2023/02/13 04:19:26;;;;;;;10.90;5.80;;;;;;;;;;5050919;28;20453;-66
2023/02/13 04:21:56;;;;;;;14.13;5.20;;;;;;;;;;5050947;28;20442;-67
2023/02/13 04:24:24;;;;;;;4.30;3.43;;;;;;;;;;5051573;28;20502;-66
2023/02/13 04:26:53;;;;;;;7.40;4.73;;;;;;;;;;5050928;28;20453;-66
2023/02/13 04:29:20;;;;;;;11.87;7.07;;;;;;;;;;5050476;28;20449;-67
2023/02/13 04:31:47;;;;;;;11.13;6.17;;;;;;;;;;5050690;28;20523;-66
2023/02/13 04:34:14;;;;;;;6.50;4.60;;;;;;;;;;5051398;28;20454;-66
2023/02/13 04:36:41;;;;;;;11.63;8.10;;;;;;;;;;5050510;28;20843;-66
2023/02/13 04:39:08;;;;;;;8.10;5.73;;;;;;;;;;5051060;28;20454;-67
2023/02/13 04:41:37;;;;;;;13.03;6.67;;;;;;;;;;5051154;28;20965;-67
2023/02/13 04:44:05;;;;;;;8.53;6.07;;;;;;;;;;5038276;28;20445;-66
2023/02/13 04:46:32;;;;;;;9.60;4.37;;;;;;;;;;5051188;28;20447;-66
2023/02/13 04:48:59;;;;;;;8.50;4.50;;;;;;;;;;5050080;28;20806;-67
2023/02/13 04:51:26;;;;;;;10.10;5.43;;;;;;;;;;5051070;28;20448;-66
2023/02/13 04:53:53;;;;;;;13.40;7.60;;;;;;;;;;5050418;28;20460;-66
2023/02/13 04:56:20;;;;;;;12.73;6.00;;;;;;;;;;5050779;28;20951;-67
2023/02/13 04:58:48;;;;;;;8.73;6.63;;;;;;;;;;5049777;28;20511;-66
2023/02/13 05:01:16;;;;;;;6.57;3.60;;;;;;;;;;5050516;28;20442;-67
2023/02/13 05:03:43;;;;;;;10.17;5.77;;;;;;;;;;5049857;28;20523;-66
2023/02/13 05:06:11;;;;;;;10.53;6.23;;;;;;;;;;5050529;28;20928;-67
2023/02/13 05:08:38;;;;;;;6.50;4.63;;;;;;;;;;5049468;28;20483;-66
2023/02/13 05:11:05;;;;;;;9.50;3.60;;;;;;;;;;5050473;28;20968;-67
2023/02/13 05:13:32;;;;;;;13.27;6.20;;;;;;;;;;5050372;28;20463;-67
2023/02/13 05:16:01;;;;;;;12.23;6.80;;;;;;;;;;5050177;28;20452;-67
2023/02/13 05:18:28;;;;;;;6.00;5.33;;;;;;;;;;5050082;28;20489;-68
2023/02/13 05:23:40;;;;;;;10.60;5.20;;;;;;;;;;5050047;28;20437;-66
2023/02/13 05:26:07;;;;;;;7.43;4.60;;;;;;;;;;5050814;28;20468;-68
2023/02/13 05:31:19;;;;;;;10.80;5.13;;;;;;;;;;5020074;28;21007;-69
2023/02/13 05:33:46;;;;;;;14.00;4.90;;;;;;;;;;5049582;28;20448;-67
2023/02/13 05:36:13;;;;;;;7.73;5.63;;;;;;;;;;5049952;28;20934;-67
2023/02/13 05:38:41;;;;;;;9.83;6.77;;;;;;;;;;5048984;28;20489;-67
2023/02/13 05:41:08;;;;;;;8.13;3.73;;;;;;;;;;5054358;28;20445;-68
2023/02/13 05:43:35;;;;;;;12.67;6.57;;;;;;;;;;5054378;28;20456;-70
2023/02/13 05:46:03;;;;;;;14.50;6.47;;;;;;;;;;5053078;28;20461;-70
2023/02/13 05:48:31;;;;;;;13.60;4.60;;;;;;;;;;5054143;28;20461;-69
2023/02/13 05:50:59;;;;;;;16.23;5.50;;;;;;;;;;5054223;28;20787;-67
2023/02/13 05:53:26;;;;;;;13.40;5.97;;;;;;;;;;5054354;28;20452;-69
2023/02/13 05:55:53;;;;;;;5.60;4.33;;;;;;;;;;5054006;28;20444;-67
2023/02/13 05:58:21;;;;;;;13.17;6.60;;;;;;;;;;5054042;28;20908;-68
2023/02/13 06:00:48;;;;;;;8.90;4.13;;;;;;;;;;5054018;28;20448;-70
2023/02/13 06:03:15;;;;;;;22.53;7.23;;;;;;;;;;5056002;28;20445;-69
2023/02/13 06:05:43;;;;;;;4.93;3.70;;;;;;;;;;5062199;28;20456;-71
2023/02/13 06:08:11;;;;;;;8.70;4.40;;;;;;;;;;5064379;28;20464;-69
2023/02/13 06:10:38;;;;;;;16.73;7.00;;;;;;;;;;5057497;28;20450;-68
2023/02/13 06:13:05;;;;;;;9.83;6.47;;;;;;;;;;5054696;28;20976;-68
2023/02/13 06:15:32;;;;;;;12.30;6.77;;;;;;;;;;5055754;28;21034;-68
2023/02/13 06:18:00;;;;;;;8.63;5.60;;;;;;;;;;5041088;28;20497;-68
2023/02/13 06:20:27;;;;;;;17.43;6.70;;;;;;;;;;5054490;28;20449;-67
2023/02/13 06:22:55;;;;;;;11.13;7.07;;;;;;;;;;5053640;28;20460;-67
2023/02/13 06:25:23;;;;;;;10.87;7.93;;;;;;;;;;5052880;28;20448;-68
2023/02/13 06:27:50;;;;;;;8.40;3.50;;;;;;;;;;5053293;28;20964;-69
2023/02/13 06:30:17;;;;;;;8.30;4.43;;;;;;;;;;5054127;28;20456;-69
2023/02/13 06:32:46;;;;;;;16.13;5.90;;;;;;;;;;5053529;28;20813;-69
2023/02/13 06:35:13;;;;;;;9.67;6.67;;;;;;;;;;5053666;28;20540;-69
2023/02/13 06:37:42;;;;;;;12.60;6.60;;;;;;;;;;5053480;28;20494;-69
2023/02/13 06:40:11;;;;;;;6.70;5.00;;;;;;;;;;5054030;28;20460;-69
2023/02/13 06:42:38;;;;;;;5.83;2.97;;;;;;;;;;5054000;28;20872;-69
2023/02/13 06:45:06;;;;;;;17.13;7.00;;;;;;;;;;5053603;28;20456;-68
2023/02/13 06:47:33;;;;;;;8.40;5.37;;;;;;;;;;5053871;28;20452;-69
2023/02/13 06:50:00;;;;;;;7.23;5.37;;;;;;;;;;5052968;28;20457;-69
2023/02/13 06:52:29;;;;;;;9.80;6.53;;;;;;;;;;5052849;28;20453;-69
2023/02/13 06:54:56;;;;;;;13.20;6.43;;;;;;;;;;5052622;28;20828;-69
2023/02/13 06:57:25;;;;;;;8.33;4.43;;;;;;;;;;5053554;28;20486;-70
2023/02/13 06:59:52;;;;;;;8.47;6.27;;;;;;;;;;5052822;28;20442;-69
2023/02/13 07:02:19;;;;;;;9.13;7.10;;;;;;;;;;5053184;28;20927;-71
2023/02/13 07:04:47;;;;;;;11.50;6.23;;;;;;;;;;5052418;28;20457;-69
2023/02/13 07:07:14;;;;;;;7.83;5.27;;;;;;;;;;5052786;28;20540;-69
2023/02/13 07:09:41;;;;;;;16.50;5.47;;;;;;;;;;5052301;28;20476;-69
2023/02/13 07:12:08;;;;;;;14.70;9.57;;;;;;;;;;5053627;28;20448;-69
2023/02/13 07:14:37;;;;;;;20.20;7.53;;;;;;;;;;5052603;28;20517;-69
2023/02/13 07:17:04;;;;;;;15.27;5.77;;;;;;;;;;5053487;28;20840;-69
2023/02/13 07:19:32;;;;;;;13.17;6.17;;;;;;;;;;5052627;28;20578;-69
2023/02/13 07:21:59;;;;;;;13.07;6.67;;;;;;;;;;5052626;28;20876;-70
2023/02/13 07:24:26;;;;;;;16.00;8.20;;;;;;;;;;5052692;28;20450;-69
2023/02/13 07:26:53;;;;;;;11.67;5.57;;;;;;;;;;5052518;28;20810;-69
2023/02/13 07:29:20;;;;;;;17.53;7.90;;;;;;;;;;5052877;28;20453;-69
2023/02/13 07:31:49;;;;;;;24.20;13.20;;;;;;;;;;5052484;28;20446;-70
2023/02/13 07:34:16;;;;;;;12.67;9.27;;;;;;;;;;5052526;28;20818;-71
2023/02/13 07:36:43;;;;;;;16.47;9.17;;;;;;;;;;5051967;28;20454;-70
2023/02/13 07:39:10;;;;;;;11.07;8.43;;;;;;;;;;5052943;28;20843;-70
2023/02/13 07:41:37;;;;;;;12.70;8.07;;;;;;;;;;5052789;28;20453;-69
2023/02/13 07:44:04;;;;;;;13.80;7.03;;;;;;;;;;5052534;28;20472;-69
2023/02/13 07:46:31;;;;;;;24.07;9.40;;;;;;;;;;5052222;28;20947;-68
2023/02/13 07:49:00;;;;;;;21.43;12.07;;;;;;;;;;5052092;28;20654;-69
2023/02/13 07:51:27;;;;;;;17.07;7.03;;;;;;;;;;5052429;28;20805;-69
2023/02/13 07:53:55;;;;;;;15.43;7.40;;;;;;;;;;5051687;28;20461;-69
2023/02/13 07:56:22;;;;;;;14.70;8.53;;;;;;;;;;5052375;28;20446;-71
2023/02/13 07:58:49;;;;;;;28.97;10.50;;;;;;;;;;5051940;28;20483;-69
2023/02/13 08:01:18;;;;;;;15.17;10.17;;;;;;;;;;5052025;28;20936;-71
2023/02/13 08:03:49;;;;;;;15.17;8.40;;;;;;;;;;5051261;28;20473;-69
2023/02/13 08:06:18;;;;;;;19.47;8.27;;;;;;;;;;5052265;28;20504;-69
2023/02/13 08:08:45;;;;;;;17.90;10.70;;;;;;;;;;5051188;28;21001;-69
2023/02/13 08:14:05;;;;;;;19.90;8.20;;;;;;;;;;5051784;28;20576;-69
2023/02/13 08:16:32;;;;;;;11.13;7.10;;;;;;;;;;5052228;28;20447;-69
2023/02/13 08:19:00;;;;;;;18.97;10.73;;;;;;;;;;5051387;28;20564;-69
2023/02/13 08:21:29;;;;;;;13.10;6.87;;;;;;;;;;5052015;28;20442;-69
2023/02/13 08:23:56;;;;;;;15.53;8.03;;;;;;;;;;5051000;28;20450;-69
2023/02/13 08:26:23;;;;;;;15.50;7.17;;;;;;;;;;5051644;28;20993;-69
2023/02/13 08:28:50;;;;;;;24.03;9.13;;;;;;;;;;5051405;28;20458;-69
2023/02/13 08:31:17;;;;;;;10.70;8.40;;;;;;;;;;5051781;28;20517;-71
2023/02/13 08:33:44;;;;;;;17.87;8.47;;;;;;;;;;5050475;28;20940;-69
2023/02/13 08:36:12;;;;;;;14.37;7.60;;;;;;;;;;5051816;28;20450;-69
2023/02/13 08:38:41;;;;;;;13.00;6.13;;;;;;;;;;5051089;28;20486;-66
2023/02/13 08:41:08;;;;;;;19.63;9.67;;;;;;;;;;5051891;28;20450;-70
2023/02/13 08:43:35;;;;;;;16.17;8.10;;;;;;;;;;5051108;28;20457;-69
2023/02/13 08:46:02;;;;;;;14.37;7.13;;;;;;;;;;5051123;28;20469;-70
2023/02/13 08:48:30;;;;;;;21.60;8.70;;;;;;;;;;5051418;28;20466;-69
2023/02/13 08:50:57;;;;;;;10.80;6.47;;;;;;;;;;5050661;28;20947;-69
2023/02/13 08:53:24;;;;;;;10.03;5.73;;;;;;;;;;5050872;28;20457;-72
2023/02/13 08:55:56;;;;;;;14.33;5.87;;;;;;;;;;5050775;28;20449;-70
2023/02/13 08:58:23;;;;;;;12.60;7.40;;;;;;;;;;5051234;28;20484;-69
2023/02/13 09:00:50;;;;;;;10.73;5.57;;;;;;;;;;5050805;28;20559;-70
2023/02/13 09:03:18;;;;;;;10.90;6.00;;;;;;;;;;5050873;28;20455;-69
2023/02/13 09:05:46;;;;;;;13.40;6.20;;;;;;;;;;5050815;28;20446;-71
2023/02/13 09:08:14;;;;;;;12.20;6.20;;;;;;;;;;5051016;28;20461;-69
2023/02/13 09:10:42;;;;;;;11.53;6.80;;;;;;;;;;5050830;28;20532;-69
2023/02/13 09:13:11;;;;;;;10.27;5.93;;;;;;;;;;5037616;28;20474;-68
2023/02/13 09:15:39;;;;;;;9.33;6.00;;;;;;;;;;5050967;28;20533;-69
2023/02/13 09:18:06;;;;;;;9.70;5.20;;;;;;;;;;5051134;28;20486;-69
2023/02/13 09:20:34;;;;;;;11.57;6.00;;;;;;;;;;5050817;28;20922;-69
2023/02/13 09:23:01;;;;;;;10.40;5.57;;;;;;;;;;5050390;28;20450;-70
2023/02/13 09:25:28;;;;;;;9.00;5.90;;;;;;;;;;5050603;28;20454;-69
2023/02/13 09:27:55;;;;;;;9.93;4.73;;;;;;;;;;5050288;28;20449;-69
2023/02/13 09:30:23;;;;;;;9.83;5.70;;;;;;;;;;5051320;28;20442;-69
2023/02/13 09:32:51;;;;;;;6.63;5.90;;;;;;;;;;5050567;28;20457;-69
2023/02/13 09:35:18;;;;;;;12.00;5.70;;;;;;;;;;5050529;28;20450;-69
2023/02/13 09:37:45;;;;;;;7.43;6.10;;;;;;;;;;5049816;28;20458;-69
2023/02/13 09:40:16;;;;;;;7.07;5.47;;;;;;;;;;5050898;28;20555;-69
2023/02/13 09:42:44;;;;;;;10.43;7.30;;;;;;;;;;5050630;28;20443;-69
2023/02/13 09:45:12;;;;;;;8.53;4.90;;;;;;;;;;5050287;28;20457;-69
2023/02/13 09:47:42;;;;;;;7.00;5.20;;;;;;;;;;5050506;28;20453;-67
2023/02/13 09:50:12;;;;;;;8.83;5.60;;;;;;;;;;5050917;28;20453;-68
2023/02/13 09:52:40;;;;;;;9.70;5.73;;;;;;;;;;5050507;28;20441;-66
2023/02/13 09:55:15;;;;;;;14.37;6.33;;;;;;;;;;5050249;28;20446;-69
2023/02/13 09:57:44;;;;;;;14.43;6.97;;;;;;;;;;5050464;28;20446;-69
2023/02/13 10:00:13;;;;;;;7.30;5.20;;;;;;;;;;5050783;28;20481;-69
2023/02/13 10:02:51;;;;;;;9.93;5.93;;;;;;;;;;5050287;28;20537;-68
2023/02/13 10:05:33;;;;;;;14.10;5.80;;;;;;;;;;5050508;28;20442;-69
2023/02/13 10:08:05;;;;;;;11.23;6.20;;;;;;;;;;5052398;28;20461;-70
2023/02/13 10:10:36;;;;;;;11.03;6.43;;;;;;;;;;5055234;28;20450;-69
2023/02/13 10:13:09;;;;;;;12.47;6.80;;;;;;;;;;5055645;28;20454;-70
2023/02/13 10:15:42;;;;;;;8.90;4.63;;;;;;;;;;5056769;28;20442;-71
2023/02/13 10:18:13;;;;;;;7.30;5.13;;;;;;;;;;5055646;28;20521;-68
2023/02/13 10:20:42;;;;;;;9.20;4.57;;;;;;;;;;5053403;28;20931;-69
2023/02/13 10:23:16;;;;;;;10.30;6.63;;;;;;;;;;5054082;28;20476;-68
2023/02/13 10:25:47;;;;;;;5.40;4.77;;;;;;;;;;5053122;28;20442;-68
2023/02/13 10:28:16;;;;;;;7.73;4.80;;;;;;;;;;5054509;28;21033;-69
2023/02/13 10:30:47;;;;;;;6.30;4.50;;;;;;;;;;5053450;28;20453;-69
2023/02/13 10:33:20;;;;;;;9.00;4.70;;;;;;;;;;5053867;28;20449;-69
2023/02/13 10:35:50;;;;;;;5.93;4.40;;;;;;;;;;5053406;28;20446;-69
2023/02/13 10:38:19;;;;;;;7.47;4.53;;;;;;;;;;5053715;28;20473;-69
2023/02/13 10:40:50;;;;;;;12.20;5.70;;;;;;;;;;5039790;28;20442;-69
2023/02/13 10:43:19;;;;;;;7.50;4.97;;;;;;;;;;5053488;28;20443;-71
2023/02/13 10:45:59;;;;;;;8.03;4.10;;;;;;;;;;5053023;28;20470;-69
2023/02/13 10:48:36;;;;;;;12.80;5.80;;;;;;;;;;5053743;28;20444;-69
2023/02/13 10:51:07;;;;;;;7.07;5.00;;;;;;;;;;5053199;28;20457;-69
2023/02/13 10:53:42;;;;;;;6.53;4.27;;;;;;;;;;5053193;28;20452;-69
2023/02/13 10:56:19;;;;;;;8.43;5.67;;;;;;;;;;5053843;28;20441;-69
2023/02/13 10:58:55;;;;;;;4.87;4.37;;;;;;;;;;5053161;28;20496;-69
2023/02/13 11:01:29;;;;;;;8.40;5.10;;;;;;;;;;5053582;28;20500;-69
2023/02/13 11:04:04;;;;;;;8.83;3.60;;;;;;;;;;5052623;28;20496;-69
2023/02/13 11:06:31;;;;;;;6.73;4.50;;;;;;;;;;5053438;28;20464;-69
2023/02/13 11:08:58;;;;;;;6.47;4.50;;;;;;;;;;5052680;28;20490;-70
2023/02/13 11:11:29;;;;;;;5.97;4.40;;;;;;;;;;5053001;28;20974;-71
2023/02/13 11:14:08;;;;;;;6.73;3.77;;;;;;;;;;5052340;28;20450;-69
2023/02/13 11:16:39;;;;;;;5.80;4.60;;;;;;;;;;5053237;28;20446;-71
2023/02/13 11:19:16;;;;;;;4.90;3.80;;;;;;;;;;5053069;28;21059;-69
2023/02/13 11:21:44;;;;;;;7.67;4.20;;;;;;;;;;5052838;28;20454;-68
2023/02/13 11:24:17;;;;;;;6.30;3.53;;;;;;;;;;5052258;28;20458;-69
2023/02/13 11:26:45;;;;;;;6.87;4.40;;;;;;;;;;5052471;28;20446;-69
2023/02/13 11:29:17;;;;;;;8.97;4.50;;;;;;;;;;5052696;28;20951;-69
2023/02/13 11:31:44;;;;;;;6.00;3.87;;;;;;;;;;5052657;28;20450;-69
2023/02/13 11:34:26;;;;;;;5.77;3.83;;;;;;;;;;5052527;28;20446;-69
2023/02/13 11:36:55;;;;;;;5.67;4.13;;;;;;;;;;5051676;28;20442;-70
2023/02/13 11:39:23;;;;;;;5.37;3.60;;;;;;;;;;5052738;28;20486;-70
2023/02/13 11:41:50;;;;;;;6.80;3.57;;;;;;;;;;5052159;28;20446;-69
2023/02/13 11:44:22;;;;;;;5.00;3.20;;;;;;;;;;5052133;28;20454;-70
2023/02/13 11:46:50;;;;;;;4.40;3.23;;;;;;;;;;5052108;28;20504;-71
2023/02/13 11:49:19;;;;;;;4.93;3.10;;;;;;;;;;5052690;28;20557;-70
2023/02/13 11:51:49;;;;;;;3.97;3.40;;;;;;;;;;5052090;28;20453;-70
2023/02/13 11:54:24;;;;;;;6.23;3.73;;;;;;;;;;5052069;28;20451;-69
2023/02/13 11:56:52;;;;;;;4.80;3.67;;;;;;;;;;5051859;28;20450;-69
2023/02/13 11:59:23;;;;;;;7.10;3.80;;;;;;;;;;5052451;28;20486;-70
2023/02/13 12:02:01;;;;;;;5.87;4.20;;;;;;;;;;5038955;28;20435;-69
2023/02/13 12:04:28;;;;;;;7.20;3.90;;;;;;;;;;5052003;28;20456;-69
2023/02/13 12:07:01;;;;;;;3.90;2.93;;;;;;;;;;5051347;28;20978;-69
2023/02/13 12:09:29;;;;;;;4.60;3.17;;;;;;;;;;5052076;28;20492;-70
2023/02/13 12:11:58;;;;;;;5.07;4.17;;;;;;;;;;5051711;28;20807;-69
2023/02/13 12:14:26;;;;;;;4.27;3.20;;;;;;;;;;5051755;28;20454;-70
2023/02/13 12:16:55;;;;;;;4.13;2.97;;;;;;;;;;5051356;28;20927;-69
2023/02/13 12:19:25;;;;;;;7.60;4.80;;;;;;;;;;5051987;28;20482;-69
2023/02/13 12:22:01;;;;;;;6.70;4.07;;;;;;;;;;5051688;28;20442;-69
2023/02/13 12:24:37;;;;;;;7.30;4.57;;;;;;;;;;5051182;28;20938;-69
2023/02/13 12:27:10;;;;;;;4.87;3.77;;;;;;;;;;5052337;28;20458;-69
2023/02/13 12:29:49;;;;;;;7.40;4.13;;;;;;;;;;5051759;28;20954;-70
2023/02/13 12:32:19;;;;;;;7.33;5.13;;;;;;;;;;5051628;28;20446;-69
2023/02/13 12:35:13;;;;;;;5.23;3.20;;;;;;;;;;5050618;28;20450;-69
2023/02/13 12:37:48;;;;;;;5.10;3.43;;;;;;;;;;5015512;28;20461;-69
2023/02/13 12:40:24;;;;;;;5.20;4.40;;;;;;;;;;5051792;28;20477;-70
2023/02/13 12:42:58;;;;;;;6.80;4.30;;;;;;;;;;5050870;28;20453;-69
2023/02/13 12:45:31;;;;;;;5.47;4.37;;;;;;;;;;5051603;28;20435;-70
2023/02/13 12:48:04;;;;;;;5.37;4.27;;;;;;;;;;5050863;28;20719;-70
2023/02/13 12:50:40;;;;;;;4.73;3.77;;;;;;;;;;5051126;28;20449;-71
2023/02/13 12:53:14;;;;;;;6.13;4.17;;;;;;;;;;5051236;28;20446;-70
2023/02/13 12:55:56;;;;;;;5.23;3.90;;;;;;;;;;5051013;28;20447;-70
2023/02/13 12:58:39;;;;;;;10.30;4.47;;;;;;;;;;5049210;28;20815;-70
2023/02/13 13:01:13;;;;;;;6.47;4.33;;;;;;;;;;5051555;28;20823;-70
2023/02/13 13:03:46;;;;;;;5.63;4.93;;;;;;;;;;5050534;28;20451;-69
2023/02/13 13:06:22;;;;;;;9.60;4.03;;;;;;;;;;5051166;28;20446;-69
2023/02/13 13:09:01;;;;;;;8.53;4.03;;;;;;;;;;5050284;28;20481;-75
2023/02/13 13:11:34;;;;;;;5.80;4.70;;;;;;;;;;5051346;28;20445;-75
2023/02/13 13:14:06;;;;;;;8.37;5.20;;;;;;;;;;5050152;28;20452;-73
2023/02/13 13:16:41;;;;;;;6.47;4.40;;;;;;;;;;5051256;28;20452;-71
2023/02/13 13:19:12;;;;;;;8.23;5.20;;;;;;;;;;5051489;28;20560;-81
2023/02/13 13:21:45;;;;;;;11.07;5.23;;;;;;;;;;5050745;28;20439;-74
2023/02/13 13:24:23;;;;;;;6.97;3.93;;;;;;;;;;5050487;28;20785;-72
2023/02/13 13:26:53;;;;;;;6.40;4.67;;;;;;;;;;5050648;28;20450;-67
2023/02/13 13:29:23;;;;;;;5.90;4.40;;;;;;;;;;5050855;28;20820;-73
2023/02/13 13:31:53;;;;;;;7.87;6.30;;;;;;;;;;5050434;28;20451;-69
2023/02/13 13:34:23;;;;;;;8.10;4.70;;;;;;;;;;5050878;28;20457;-70
2023/02/13 13:36:51;;;;;;;15.40;5.93;;;;;;;;;;5050318;28;20449;-70
2023/02/13 13:39:31;;;;;;;10.00;5.67;;;;;;;;;;5050527;28;20454;-70
2023/02/13 13:42:01;;;;;;;8.13;5.20;;;;;;;;;;5050095;28;20446;-69
2023/02/13 13:44:41;;;;;;;12.20;5.50;;;;;;;;;;5050651;28;20438;-69
2023/02/13 13:47:17;;;;;;;7.40;4.57;;;;;;;;;;5051066;28;20815;-70
2023/02/13 13:49:49;;;;;;;8.03;5.30;;;;;;;;;;5050251;28;20446;-69
2023/02/13 13:52:24;;;;;;;6.10;4.70;;;;;;;;;;5050476;28;20438;-69
2023/02/13 13:54:54;;;;;;;7.57;4.93;;;;;;;;;;5049705;28;20453;-78
2023/02/13 13:57:22;;;;;;;7.60;6.13;;;;;;;;;;5050780;28;20446;-69
2023/02/13 14:00:08;;;;;;;9.23;5.30;;;;;;;;;;5050286;28;20478;-70
2023/02/13 14:02:44;;;;;;;7.93;5.30;;;;;;;;;;5054636;28;20540;-69
2023/02/13 14:05:19;;;;;;;9.23;5.57;;;;;;;;;;5054436;28;20820;-69
2023/02/13 14:07:47;;;;;;;6.77;5.20;;;;;;;;;;5053748;28;20504;-69
2023/02/13 14:10:38;;;;;;;7.40;5.83;;;;;;;;;;5054606;28;20477;-69
2023/02/13 14:13:06;;;;;;;7.20;4.77;;;;;;;;;;5039230;28;20454;-69
2023/02/13 14:15:50;;;;;;;7.07;5.17;;;;;;;;;;5055256;28;20772;-69
2023/02/13 14:18:21;;;;;;;7.60;5.03;;;;;;;;;;5055185;28;20450;-69
2023/02/13 14:20:53;;;;;;;7.30;5.73;;;;;;;;;;5054763;28;20481;-68
2023/02/13 14:23:37;;;;;;;8.97;5.27;;;;;;;;;;5052386;28;20439;-68
2023/02/13 14:26:20;;;;;;;7.17;5.17;;;;;;;;;;5051449;28;20442;-68
2023/02/13 14:28:56;;;;;;;7.50;5.37;;;;;;;;;;5052282;28;20434;-69
2023/02/13 14:31:26;;;;;;;7.80;4.40;;;;;;;;;;5053419;28;20442;-68
2023/02/13 14:33:56;;;;;;;6.83;4.77;;;;;;;;;;5052719;28;20442;-69
2023/02/13 14:36:30;;;;;;;6.27;4.70;;;;;;;;;;5053651;28;20447;-69
2023/02/13 14:38:59;;;;;;;6.60;4.70;;;;;;;;;;5053281;28;21002;-68
2023/02/13 14:41:42;;;;;;;5.00;4.30;;;;;;;;;;5053516;28;20474;-68
2023/02/13 14:44:15;;;;;;;7.17;4.97;;;;;;;;;;5052127;28;20461;-69
2023/02/13 14:46:45;;;;;;;9.17;5.13;;;;;;;;;;5052507;28;20461;-69
2023/02/13 14:49:16;;;;;;;6.30;4.23;;;;;;;;;;5053597;28;20871;-69
2023/02/13 14:51:46;;;;;;;7.47;4.63;;;;;;;;;;5053038;28;20450;-69
2023/02/13 14:54:19;;;;;;;4.50;3.43;;;;;;;;;;5052783;28;20439;-69
2023/02/13 14:56:47;;;;;;;5.63;4.30;;;;;;;;;;5052793;28;20853;-69
2023/02/13 14:59:17;;;;;;;8.37;4.90;;;;;;;;;;5052186;28;20512;-68
2023/02/13 15:01:47;;;;;;;6.63;4.83;;;;;;;;;;5051696;28;20478;-69
2023/02/13 15:04:19;;;;;;;8.07;4.27;;;;;;;;;;5051389;28;20484;-69
2023/02/13 15:06:47;;;;;;;6.60;4.27;;;;;;;;;;5052014;28;20450;-70
2023/02/13 15:09:18;;;;;;;8.23;5.00;;;;;;;;;;5052574;28;20474;-69
2023/02/13 15:11:46;;;;;;;4.83;3.87;;;;;;;;;;5051736;28;20442;-73
2023/02/13 15:14:31;;;;;;;7.30;5.77;;;;;;;;;;5052508;28;20443;-69
2023/02/13 15:17:00;;;;;;;6.37;4.03;;;;;;;;;;5052103;28;20454;-69
2023/02/13 15:19:28;;;;;;;6.47;4.47;;;;;;;;;;5051508;28;20455;-69
2023/02/13 15:21:58;;;;;;;6.60;3.70;;;;;;;;;;5051850;28;20489;-69
2023/02/13 15:24:25;;;;;;;5.13;3.57;;;;;;;;;;5052119;28;20447;-69
2023/02/13 15:27:10;;;;;;;6.00;4.50;;;;;;;;;;5052431;28;20528;-69
2023/02/13 15:29:37;;;;;;;6.50;3.93;;;;;;;;;;5052739;28;20450;-70
2023/02/13 15:32:20;;;;;;;5.03;4.03;;;;;;;;;;5051811;28;20461;-70
2023/02/13 15:34:49;;;;;;;6.17;4.50;;;;;;;;;;5051487;28;20454;-69
2023/02/13 15:37:21;;;;;;;7.07;4.23;;;;;;;;;;5051299;28;20462;-69